createdAt,value
2022-07-25T00:01:23.905Z,23.61
2022-07-25T00:03:52.448Z,23.43
2022-07-25T00:06:20.639Z,23.31
2022-07-25T00:08:48.725Z,23.25
2022-07-25T00:11:16.872Z,23.26
2022-07-25T00:13:44.944Z,23.17
2022-07-25T00:16:13.382Z,23.21
2022-07-25T00:18:43.273Z,23.12
2022-07-25T00:21:12.217Z,23.42
2022-07-25T00:23:40.342Z,23.29
2022-07-25T00:26:08.537Z,23.15
2022-07-25T00:28:36.778Z,23.25
2022-07-25T00:31:05.063Z,23.19
2022-07-25T00:33:33.172Z,23.16
2022-07-25T00:36:02.818Z,23.15
2022-07-25T00:38:32.240Z,23.00
2022-07-25T00:41:00.317Z,22.91
2022-07-25T00:43:28.450Z,22.88
2022-07-25T00:45:58.765Z,22.97
2022-07-25T00:48:27.995Z,22.84
2022-07-25T00:50:56.804Z,22.71
2022-07-25T00:53:27.168Z,22.75
2022-07-25T00:55:55.893Z,22.89
2022-07-25T00:58:24.023Z,22.95
2022-07-25T01:00:52.472Z,22.85
2022-07-25T01:03:20.632Z,22.70
2022-07-25T01:05:53.665Z,22.65
2022-07-25T01:08:23.290Z,22.59
2022-07-25T01:10:53.014Z,22.52
2022-07-25T01:13:21.163Z,22.50
2022-07-25T01:15:49.330Z,22.47
2022-07-25T01:18:18.012Z,22.44
2022-07-25T01:20:47.814Z,22.41
2022-07-25T01:23:15.945Z,22.42
2022-07-25T01:25:44.065Z,22.51
2022-07-25T01:28:12.158Z,22.51
2022-07-25T01:30:40.414Z,22.48
2022-07-25T01:33:08.650Z,22.41
2022-07-25T01:35:41.490Z,22.54
2022-07-25T01:38:13.356Z,22.70
2022-07-25T01:40:42.748Z,22.59
2022-07-25T01:43:12.169Z,22.51
2022-07-25T01:45:40.244Z,22.59
2022-07-25T01:48:08.629Z,22.42
2022-07-25T01:50:36.675Z,22.27
2022-07-25T01:53:05.376Z,22.09
2022-07-25T01:55:34.969Z,22.02
2022-07-25T01:58:03.141Z,21.87
2022-07-25T02:00:31.303Z,21.81
2022-07-25T02:03:16.576Z,21.81
2022-07-25T02:05:44.688Z,21.98
2022-07-25T02:08:12.857Z,21.88
2022-07-25T02:10:42.249Z,21.90
2022-07-25T02:13:10.368Z,21.80
2022-07-25T02:15:38.472Z,22.10
2022-07-25T02:18:07.100Z,22.13
2022-07-25T02:20:35.534Z,22.04
2022-07-25T02:23:04.152Z,22.07
2022-07-25T02:25:32.535Z,22.04
2022-07-25T02:28:02.225Z,21.94
2022-07-25T02:30:30.552Z,21.88
2022-07-25T02:32:58.901Z,21.84
2022-07-25T02:35:27.304Z,21.83
2022-07-25T02:37:55.503Z,21.68
2022-07-25T02:40:23.653Z,21.64
2022-07-25T02:42:51.731Z,21.71
2022-07-25T02:45:21.446Z,21.61
2022-07-25T02:47:49.682Z,21.52
2022-07-25T02:50:18.808Z,21.37
2022-07-25T02:52:46.873Z,21.32
2022-07-25T02:55:14.955Z,21.23
2022-07-25T02:57:42.995Z,21.39
2022-07-25T03:00:12.394Z,21.18
2022-07-25T03:02:42.109Z,21.06
2022-07-25T03:05:12.010Z,20.99
2022-07-25T03:07:40.552Z,20.95
2022-07-25T03:10:11.464Z,20.93
2022-07-25T03:12:40.999Z,20.82
2022-07-25T03:15:10.254Z,20.57
2022-07-25T03:17:38.421Z,20.51
2022-07-25T03:20:09.939Z,20.58
2022-07-25T03:22:38.202Z,20.59
2022-07-25T03:25:15.643Z,20.43
2022-07-25T03:27:50.741Z,20.30
2022-07-25T03:30:18.942Z,20.40
2022-07-25T03:32:47.798Z,20.55
2022-07-25T03:35:17.396Z,20.62
2022-07-25T03:37:45.677Z,20.57
2022-07-25T03:40:15.908Z,20.67
2022-07-25T03:42:44.883Z,20.90
2022-07-25T03:45:13.031Z,20.91
2022-07-25T03:47:41.166Z,20.72
2022-07-25T03:50:09.940Z,20.85
2022-07-25T03:52:39.498Z,21.14
2022-07-25T03:55:09.034Z,21.58
2022-07-25T03:57:37.805Z,21.93
2022-07-25T04:00:08.913Z,22.85
2022-07-25T04:02:38.848Z,23.67
2022-07-25T04:05:08.496Z,24.15
2022-07-25T04:07:37.561Z,24.58
2022-07-25T04:10:09.329Z,25.34
2022-07-25T04:12:37.545Z,25.40
2022-07-25T04:15:06.466Z,25.94
2022-07-25T04:17:34.762Z,26.30
2022-07-25T04:20:08.187Z,26.74
2022-07-25T04:22:40.971Z,26.95
2022-07-25T04:25:11.835Z,27.20
2022-07-25T04:27:39.984Z,27.47
2022-07-25T04:30:09.279Z,26.92
2022-07-25T04:32:37.361Z,26.94
2022-07-25T04:35:06.102Z,26.88
2022-07-25T04:37:36.097Z,27.71
2022-07-25T04:40:05.137Z,28.48
2022-07-25T04:42:35.000Z,27.91
2022-07-25T04:45:04.636Z,28.36
2022-07-25T04:47:33.080Z,28.19
2022-07-25T04:50:02.662Z,28.12
2022-07-25T04:52:30.861Z,28.80
2022-07-25T04:54:58.981Z,29.01
2022-07-25T04:57:27.183Z,29.31
2022-07-25T04:59:56.935Z,29.08
2022-07-25T05:02:25.160Z,29.22
2022-07-25T05:04:53.790Z,29.80
2022-07-25T05:07:21.912Z,29.64
2022-07-25T05:09:49.999Z,29.85
2022-07-25T05:12:18.126Z,29.87
2022-07-25T05:14:46.238Z,30.17
2022-07-25T05:17:15.767Z,29.49
2022-07-25T05:19:43.915Z,29.21
2022-07-25T05:22:12.002Z,29.98
2022-07-25T05:24:40.049Z,30.33
2022-07-25T05:27:08.715Z,30.25
2022-07-25T05:29:36.870Z,29.95
2022-07-25T05:32:05.523Z,30.14
2022-07-25T05:34:35.103Z,30.84
2022-07-25T05:37:03.174Z,30.55
2022-07-25T05:39:31.603Z,30.90
2022-07-25T05:41:59.699Z,30.47
2022-07-25T05:44:27.825Z,32.01
2022-07-25T05:46:55.976Z,31.52
2022-07-25T05:49:24.112Z,31.64
2022-07-25T05:51:53.933Z,32.04
2022-07-25T05:54:22.045Z,31.84
2022-07-25T05:56:50.181Z,32.80
2022-07-25T05:59:20.580Z,32.59
2022-07-25T06:01:48.815Z,33.21
2022-07-25T06:04:17.024Z,32.18
2022-07-25T06:06:50.977Z,32.48
2022-07-25T06:09:21.735Z,32.33
2022-07-25T06:11:59.874Z,32.66
2022-07-25T06:14:29.622Z,33.17
2022-07-25T06:16:57.912Z,33.21
2022-07-25T06:19:26.041Z,33.79
2022-07-25T06:21:54.148Z,34.59
2022-07-25T06:24:23.609Z,34.33
2022-07-25T06:26:51.686Z,33.86
2022-07-25T06:29:19.773Z,34.04
2022-07-25T06:31:47.959Z,33.81
2022-07-25T06:34:16.106Z,33.77
2022-07-25T06:36:44.279Z,34.29
2022-07-25T06:39:12.472Z,34.60
2022-07-25T06:41:41.940Z,34.35
2022-07-25T06:44:10.239Z,34.69
2022-07-25T06:46:38.570Z,34.73
2022-07-25T06:49:07.109Z,35.25
2022-07-25T06:51:36.080Z,35.18
2022-07-25T06:54:04.712Z,34.98
2022-07-25T06:56:33.099Z,35.32
2022-07-25T06:59:02.671Z,34.41
2022-07-25T07:01:30.802Z,34.47
2022-07-25T07:03:58.957Z,34.79
2022-07-25T07:06:27.059Z,33.75
2022-07-25T07:08:56.137Z,32.97
2022-07-25T07:11:24.285Z,31.98
2022-07-25T07:13:52.465Z,31.43
2022-07-25T07:16:22.027Z,31.19
2022-07-25T07:18:50.246Z,30.98
2022-07-25T07:21:21.312Z,31.13
2022-07-25T07:23:53.571Z,30.86
2022-07-25T07:26:22.451Z,30.87
2022-07-25T07:28:50.744Z,29.88
2022-07-25T07:31:19.468Z,29.91
2022-07-25T07:33:49.148Z,29.72
2022-07-25T07:36:17.974Z,29.35
2022-07-25T07:38:46.110Z,29.88
2022-07-25T07:41:14.487Z,30.08
2022-07-25T07:43:42.828Z,29.91
2022-07-25T07:46:10.898Z,29.74
2022-07-25T07:48:39.535Z,29.74
2022-07-25T07:51:09.077Z,29.61
2022-07-25T07:53:54.810Z,29.51
2022-07-25T07:56:22.862Z,29.49
2022-07-25T07:58:51.005Z,29.34
2022-07-25T08:01:19.115Z,29.29
2022-07-25T08:03:47.279Z,29.20
2022-07-25T08:06:16.766Z,29.27
2022-07-25T08:08:44.829Z,29.36
2022-07-25T08:11:13.027Z,29.40
2022-07-25T08:13:41.155Z,29.40
2022-07-25T08:16:11.926Z,29.33
2022-07-25T08:18:40.310Z,28.59
2022-07-25T08:21:11.926Z,28.57
2022-07-25T08:23:41.430Z,28.54
2022-07-25T08:26:09.549Z,28.50
2022-07-25T08:28:37.652Z,28.92
2022-07-25T08:31:05.859Z,29.02
2022-07-25T08:33:33.976Z,29.21
2022-07-25T08:36:02.128Z,29.16
2022-07-25T08:38:30.471Z,29.20
2022-07-25T08:41:00.024Z,29.17
2022-07-25T08:43:32.907Z,29.32
2022-07-25T08:46:02.997Z,29.24
2022-07-25T08:48:31.255Z,29.31
2022-07-25T08:51:00.610Z,29.41
2022-07-25T08:53:33.035Z,29.46
2022-07-25T08:56:12.292Z,29.42
2022-07-25T08:58:44.173Z,29.35
2022-07-25T09:01:12.987Z,29.41
2022-07-25T09:03:43.012Z,29.58
2022-07-25T09:06:19.482Z,29.81
2022-07-25T09:08:58.758Z,29.87
2022-07-25T09:11:30.048Z,29.84
2022-07-25T09:14:02.746Z,29.39
2022-07-25T09:16:35.003Z,29.46
2022-07-25T09:19:14.953Z,29.66
2022-07-25T09:21:45.981Z,29.86
2022-07-25T09:24:16.996Z,30.09
2022-07-25T09:26:48.971Z,30.13
2022-07-25T09:29:22.866Z,30.20
2022-07-25T09:31:51.176Z,29.97
2022-07-25T09:34:31.882Z,30.12
2022-07-25T09:37:00.094Z,30.09
2022-07-25T09:39:36.382Z,30.13
2022-07-25T09:42:15.924Z,29.81
2022-07-25T09:44:58.912Z,29.63
2022-07-25T09:47:27.115Z,29.63
2022-07-25T09:49:55.653Z,29.91
2022-07-25T09:52:24.053Z,29.95
2022-07-25T09:54:52.144Z,29.93
2022-07-25T09:57:21.915Z,29.83
2022-07-25T09:59:50.841Z,30.03
2022-07-25T10:02:33.480Z,30.04
2022-07-25T10:05:13.827Z,30.31
2022-07-25T10:07:46.211Z,30.51
2022-07-25T10:10:27.660Z,30.39
2022-07-25T10:13:11.232Z,30.43
2022-07-25T10:15:48.287Z,30.33
2022-07-25T10:18:18.601Z,30.67
2022-07-25T10:20:48.016Z,30.65
2022-07-25T10:23:21.319Z,30.64
2022-07-25T10:26:00.911Z,30.65
2022-07-25T10:28:48.351Z,30.69
2022-07-25T10:31:23.025Z,30.66
2022-07-25T10:33:58.707Z,30.50
2022-07-25T10:36:30.230Z,30.47
2022-07-25T10:39:00.945Z,30.47
2022-07-25T10:41:29.990Z,30.70
2022-07-25T10:44:03.680Z,30.73
2022-07-25T10:46:36.327Z,30.55
2022-07-25T10:49:06.028Z,30.72
2022-07-25T10:51:41.156Z,30.66
2022-07-25T10:54:15.337Z,30.60
2022-07-25T10:56:53.838Z,30.66
2022-07-25T10:59:32.168Z,30.75
2022-07-25T11:02:00.479Z,30.88
2022-07-25T11:04:29.026Z,30.95
2022-07-25T11:06:57.477Z,31.08
2022-07-25T11:09:28.406Z,31.03
2022-07-25T11:11:58.309Z,31.17
2022-07-25T11:14:31.219Z,31.24
2022-07-25T11:17:13.403Z,31.15
2022-07-25T11:19:42.861Z,31.24
2022-07-25T11:22:11.783Z,31.34
2022-07-25T11:24:41.375Z,31.32
2022-07-25T11:27:12.734Z,31.37
2022-07-25T11:29:41.887Z,31.39
2022-07-25T11:32:13.383Z,31.13
2022-07-25T11:34:44.763Z,30.94
2022-07-25T11:37:14.619Z,31.02
2022-07-25T11:39:45.871Z,31.13
2022-07-25T11:42:16.793Z,31.00
2022-07-25T11:44:48.477Z,30.65
2022-07-25T11:47:31.229Z,30.79
2022-07-25T11:50:01.824Z,31.00
2022-07-25T11:52:32.705Z,31.21
2022-07-25T11:55:02.962Z,31.35
2022-07-25T11:57:33.532Z,31.33
2022-07-25T12:00:03.525Z,31.41
2022-07-25T12:02:35.395Z,31.51
2022-07-25T12:05:06.644Z,31.60
2022-07-25T12:07:37.594Z,31.67
2022-07-25T12:10:07.608Z,31.72
2022-07-25T12:12:52.692Z,31.48
2022-07-25T12:15:22.441Z,31.52
2022-07-25T12:17:53.388Z,31.30
2022-07-25T12:20:22.829Z,31.48
2022-07-25T12:22:53.109Z,31.52
2022-07-25T12:25:21.608Z,31.49
2022-07-25T12:27:50.988Z,31.49
2022-07-25T12:30:20.754Z,31.69
2022-07-25T12:32:49.049Z,31.32
2022-07-25T12:35:18.928Z,31.36
2022-07-25T12:37:47.386Z,31.18
2022-07-25T12:40:16.512Z,31.45
2022-07-25T12:42:45.809Z,31.61
2022-07-25T12:45:15.672Z,31.76
2022-07-25T12:47:45.856Z,31.87
2022-07-25T12:50:14.539Z,31.97
2022-07-25T12:52:44.865Z,32.03
2022-07-25T12:55:14.739Z,31.90
2022-07-25T12:57:43.589Z,31.59
2022-07-25T13:00:14.442Z,31.71
2022-07-25T13:02:42.607Z,31.84
2022-07-25T13:05:11.310Z,31.83
2022-07-25T13:07:39.638Z,31.78
2022-07-25T13:10:10.350Z,31.68
2022-07-25T13:12:38.736Z,31.66
2022-07-25T13:15:08.153Z,31.86
2022-07-25T13:17:36.360Z,31.96
2022-07-25T13:20:05.489Z,32.06
2022-07-25T13:22:34.021Z,32.09
2022-07-25T13:25:02.119Z,32.12
2022-07-25T13:27:31.740Z,32.03
2022-07-25T13:30:00.506Z,32.08
2022-07-25T13:32:31.699Z,31.92
2022-07-25T13:34:59.782Z,31.83
2022-07-25T13:37:27.891Z,31.96
2022-07-25T13:39:56.010Z,32.00
2022-07-25T13:42:24.122Z,32.18
2022-07-25T13:44:53.678Z,32.12
2022-07-25T13:47:23.710Z,32.09
2022-07-25T13:49:55.349Z,31.95
2022-07-25T13:52:23.412Z,31.71
2022-07-25T13:54:51.562Z,31.68
2022-07-25T13:57:20.276Z,31.89
2022-07-25T13:59:49.588Z,32.06
2022-07-25T14:02:19.104Z,31.99
2022-07-25T14:04:47.455Z,32.09
2022-07-25T14:07:15.573Z,32.24
2022-07-25T14:09:43.671Z,32.30
2022-07-25T14:12:11.725Z,32.35
2022-07-25T14:14:40.733Z,32.33
2022-07-25T14:17:08.923Z,32.29
2022-07-25T14:19:38.802Z,32.34
2022-07-25T14:22:06.968Z,32.12
2022-07-25T14:24:35.070Z,32.01
2022-07-25T14:27:03.620Z,32.13
2022-07-25T14:29:31.936Z,32.15
2022-07-25T14:32:00.102Z,32.17
2022-07-25T14:34:28.281Z,32.23
2022-07-25T14:36:57.849Z,32.24
2022-07-25T14:39:26.049Z,32.09
2022-07-25T14:41:54.115Z,32.06
2022-07-25T14:44:22.964Z,32.13
2022-07-25T14:46:51.299Z,31.98
2022-07-25T14:49:19.526Z,31.90
2022-07-25T14:51:47.637Z,31.93
2022-07-25T14:54:17.471Z,32.00
2022-07-25T14:56:45.595Z,31.95
2022-07-25T14:59:13.707Z,32.07
2022-07-25T15:01:41.898Z,32.06
2022-07-25T15:04:10.179Z,32.00
2022-07-25T15:06:38.502Z,32.03
2022-07-25T15:09:07.488Z,31.93
2022-07-25T15:11:37.572Z,31.82
2022-07-25T15:14:05.641Z,31.85
2022-07-25T15:16:34.016Z,31.75
2022-07-25T15:19:17.974Z,31.63
2022-07-25T15:21:46.464Z,31.73
2022-07-25T15:24:15.042Z,31.68
2022-07-25T15:26:44.541Z,31.89
2022-07-25T15:29:15.200Z,31.87
2022-07-25T15:31:43.334Z,31.96
2022-07-25T15:34:11.835Z,31.96
2022-07-25T15:36:40.125Z,32.05
2022-07-25T15:39:09.355Z,32.02
2022-07-25T15:41:37.806Z,32.09
2022-07-25T15:44:07.642Z,32.17
2022-07-25T15:46:35.923Z,32.12
2022-07-25T15:49:04.600Z,31.99
2022-07-25T15:51:33.022Z,31.86
2022-07-25T15:54:01.118Z,31.78
2022-07-25T15:56:29.290Z,31.92
2022-07-25T15:58:57.497Z,31.72
2022-07-25T16:01:27.370Z,31.59
2022-07-25T16:03:59.848Z,31.64
2022-07-25T16:06:28.556Z,31.57
2022-07-25T16:08:57.001Z,31.56
2022-07-25T16:11:25.128Z,31.57
2022-07-25T16:13:53.811Z,31.67
2022-07-25T16:16:22.940Z,31.55
2022-07-25T16:18:52.733Z,31.53
2022-07-25T16:21:20.885Z,31.66
2022-07-25T16:23:48.986Z,31.72
2022-07-25T16:26:17.129Z,31.53
2022-07-25T16:28:48.677Z,31.50
2022-07-25T16:31:16.763Z,31.49
2022-07-25T16:33:44.920Z,31.52
2022-07-25T16:36:14.410Z,31.50
2022-07-25T16:38:43.324Z,31.46
2022-07-25T16:41:11.584Z,31.52
2022-07-25T16:43:39.784Z,31.55
2022-07-25T16:46:08.645Z,31.56
2022-07-25T16:48:38.047Z,31.50
2022-07-25T16:51:06.279Z,31.44
2022-07-25T16:53:36.545Z,31.61
2022-07-25T16:56:05.495Z,31.65
2022-07-25T16:58:35.001Z,31.63
2022-07-25T17:01:03.181Z,31.51
2022-07-25T17:03:31.354Z,31.46
2022-07-25T17:05:59.603Z,31.49
2022-07-25T17:08:27.919Z,31.43
2022-07-25T17:10:57.388Z,31.42
2022-07-25T17:13:25.782Z,31.31
2022-07-25T17:15:54.220Z,31.22
2022-07-25T17:18:22.742Z,31.19
2022-07-25T17:20:51.123Z,31.24
2022-07-25T17:23:19.202Z,31.21
2022-07-25T17:25:53.501Z,31.27
2022-07-25T17:28:23.713Z,31.23
2022-07-25T17:30:52.035Z,31.15
2022-07-25T17:33:20.368Z,31.11
2022-07-25T17:35:48.534Z,31.19
2022-07-25T17:38:16.732Z,31.22
2022-07-25T17:40:44.962Z,31.16
2022-07-25T17:43:13.182Z,30.98
2022-07-25T17:45:42.884Z,30.94
2022-07-25T17:48:11.305Z,30.95
2022-07-25T17:50:39.534Z,30.95
2022-07-25T17:53:07.781Z,30.81
2022-07-25T17:55:38.943Z,30.72
2022-07-25T17:58:07.190Z,30.67
2022-07-25T18:00:35.358Z,30.73
2022-07-25T18:03:05.514Z,30.61
2022-07-25T18:05:33.952Z,30.59
2022-07-25T18:08:03.019Z,30.48
2022-07-25T18:10:32.372Z,30.44
2022-07-25T18:13:02.104Z,30.30
2022-07-25T18:15:30.455Z,30.26
2022-07-25T18:17:58.849Z,30.18
2022-07-25T18:20:29.157Z,30.14
2022-07-25T18:22:58.721Z,30.07
2022-07-25T18:25:27.341Z,30.03
2022-07-25T18:27:55.954Z,29.91
2022-07-25T18:30:28.831Z,29.97
2022-07-25T18:32:57.970Z,29.82
2022-07-25T18:35:26.728Z,29.67
2022-07-25T18:37:56.690Z,29.66
2022-07-25T18:40:24.805Z,29.69
2022-07-25T18:42:53.446Z,29.64
2022-07-25T18:45:22.020Z,29.49
2022-07-25T18:47:52.327Z,29.47
2022-07-25T18:50:20.981Z,29.42
2022-07-25T18:52:49.207Z,29.46
2022-07-25T18:55:19.129Z,29.36
2022-07-25T18:57:47.370Z,29.24
2022-07-25T19:00:16.418Z,29.26
2022-07-25T19:02:44.678Z,29.31
2022-07-25T19:05:13.344Z,29.18
2022-07-25T19:07:41.896Z,29.17
2022-07-25T19:10:10.837Z,29.13
2022-07-25T19:12:40.745Z,28.99
2022-07-25T19:15:09.572Z,28.92
2022-07-25T19:17:38.165Z,28.78
2022-07-25T19:20:07.475Z,28.66
2022-07-25T19:22:35.729Z,28.62
2022-07-25T19:25:07.556Z,28.65
2022-07-25T19:27:35.835Z,28.55
2022-07-25T19:30:07.045Z,28.60
2022-07-25T19:32:36.014Z,28.59
2022-07-25T19:35:04.645Z,28.59
2022-07-25T19:37:33.571Z,28.65
2022-07-25T19:40:15.796Z,28.66
2022-07-25T19:43:06.064Z,28.66
2022-07-25T19:46:03.120Z,28.53
2022-07-25T19:48:58.829Z,28.28
2022-07-25T19:51:33.368Z,28.18
2022-07-25T19:54:05.730Z,28.22
2022-07-25T19:56:39.023Z,28.22
2022-07-25T19:59:07.224Z,28.22
2022-07-25T20:01:36.820Z,28.14
2022-07-25T20:04:08.740Z,28.16
2022-07-25T20:06:37.467Z,28.01
2022-07-25T20:09:06.604Z,27.80
2022-07-25T20:11:34.966Z,27.75
2022-07-25T20:14:03.061Z,27.56
2022-07-25T20:16:31.656Z,27.44
2022-07-25T20:19:01.382Z,27.41
2022-07-25T20:21:29.914Z,27.30
2022-07-25T20:23:58.173Z,27.13
2022-07-25T20:26:26.862Z,27.04
2022-07-25T20:28:55.348Z,26.93
2022-07-25T20:31:25.295Z,26.82
2022-07-25T20:33:54.196Z,26.76
2022-07-25T20:36:23.761Z,26.66
2022-07-25T20:38:52.169Z,26.60
2022-07-25T20:41:21.057Z,26.50
2022-07-25T20:43:49.448Z,26.41
2022-07-25T20:46:17.809Z,26.32
2022-07-25T20:48:45.977Z,26.25
2022-07-25T20:51:14.351Z,26.19
2022-07-25T20:53:44.618Z,26.20
2022-07-25T20:56:19.720Z,26.13
2022-07-25T20:58:48.094Z,26.09
2022-07-25T21:01:16.338Z,26.07
2022-07-25T21:03:44.678Z,25.99
2022-07-25T21:06:12.941Z,25.93
2022-07-25T21:08:41.130Z,25.90
2022-07-25T21:11:10.724Z,25.86
2022-07-25T21:13:38.811Z,25.80
2022-07-25T21:16:07.421Z,25.78
2022-07-25T21:18:35.592Z,25.77
2022-07-25T21:21:04.430Z,25.72
2022-07-25T21:23:33.832Z,25.71
2022-07-25T21:26:02.869Z,25.76
2022-07-25T21:28:32.439Z,25.74
2022-07-25T21:31:00.710Z,25.73
2022-07-25T21:33:28.832Z,25.75
2022-07-25T21:35:56.914Z,25.76
2022-07-25T21:38:26.693Z,25.75
2022-07-25T21:40:56.001Z,25.85
2022-07-25T21:43:24.797Z,25.83
2022-07-25T21:45:54.449Z,25.94
2022-07-25T21:48:43.299Z,26.10
2022-07-25T21:51:13.550Z,26.12
2022-07-25T21:53:47.937Z,26.17
2022-07-25T21:56:16.348Z,26.15
2022-07-25T21:58:44.723Z,26.16
2022-07-25T22:01:14.385Z,26.01
2022-07-25T22:03:42.628Z,26.08
2022-07-25T22:06:11.265Z,26.06
2022-07-25T22:08:39.790Z,25.99
2022-07-25T22:11:38.118Z,25.81
2022-07-25T22:13:56.662Z,25.79
2022-07-25T22:16:26.560Z,25.81
2022-07-25T22:18:54.882Z,25.82
2022-07-25T22:21:22.989Z,25.76
2022-07-25T22:23:51.080Z,25.56
2022-07-25T22:26:20.240Z,25.47
2022-07-25T22:28:49.059Z,25.33
2022-07-25T22:31:18.147Z,25.53
2022-07-25T22:33:47.669Z,25.44
2022-07-25T22:36:16.271Z,25.24
2022-07-25T22:38:44.375Z,25.17
2022-07-25T22:41:12.527Z,25.03
2022-07-25T22:43:56.954Z,24.98
2022-07-25T22:46:27.031Z,25.01
2022-07-25T22:48:57.135Z,24.95
2022-07-25T22:51:26.408Z,24.87
2022-07-25T22:53:54.688Z,24.77
2022-07-25T22:56:22.920Z,24.70
2022-07-25T22:58:51.070Z,24.67
2022-07-25T23:01:19.449Z,24.65
2022-07-25T23:03:49.952Z,24.62
2022-07-25T23:06:21.024Z,24.61
2022-07-25T23:08:49.817Z,24.57
2022-07-25T23:11:18.555Z,24.49
2022-07-25T23:13:46.720Z,24.56
2022-07-25T23:16:14.897Z,24.75
2022-07-25T23:18:42.983Z,24.79
2022-07-25T23:21:11.499Z,24.57
2022-07-25T23:23:41.045Z,24.39
2022-07-25T23:26:09.120Z,24.23
2022-07-25T23:28:37.553Z,24.15
2022-07-25T23:31:05.784Z,24.08
2022-07-25T23:33:34.180Z,24.13
2022-07-25T23:36:02.378Z,24.27
2022-07-25T23:38:30.670Z,24.24
2022-07-25T23:41:00.179Z,24.13
2022-07-25T23:43:56.573Z,24.12
2022-07-25T23:46:16.377Z,24.02
2022-07-25T23:48:46.638Z,23.94
2022-07-25T23:51:16.614Z,24.01
2022-07-25T23:53:44.919Z,24.03
2022-07-25T23:56:20.182Z,24.17
2022-07-25T23:58:50.066Z,24.32
